createdAt,value
2022-11-22T00:02:17.651Z,13.60
2022-11-22T00:04:49.790Z,13.87
2022-11-22T00:07:23.142Z,13.77
2022-11-22T00:09:53.985Z,13.90
2022-11-22T00:12:24.592Z,15.20
2022-11-22T00:14:59.650Z,13.67
2022-11-22T00:17:32.409Z,15.57
2022-11-22T00:20:05.618Z,13.30
2022-11-22T00:22:44.066Z,14.17
2022-11-22T00:25:12.001Z,12.57
2022-11-22T00:27:47.664Z,15.00
2022-11-22T00:30:20.041Z,14.60
2022-11-22T00:32:51.335Z,14.07
2022-11-22T00:35:24.431Z,15.07
2022-11-22T00:37:56.789Z,12.30
2022-11-22T00:43:21.449Z,14.50
2022-11-22T00:45:56.704Z,13.70
2022-11-22T00:48:27.549Z,14.63
2022-11-22T00:50:59.703Z,14.87
2022-11-22T00:53:30.906Z,14.67
2022-11-22T00:56:03.208Z,13.20
2022-11-22T00:58:34.182Z,13.77
2022-11-22T01:01:04.856Z,14.30
2022-11-22T01:03:37.689Z,14.13
2022-11-22T01:06:08.300Z,12.47
2022-11-22T01:08:42.582Z,15.77
2022-11-22T01:11:14.125Z,12.80
2022-11-22T01:13:48.671Z,14.07
2022-11-22T01:16:18.790Z,13.40
2022-11-22T01:18:49.356Z,14.37
2022-11-22T01:21:21.823Z,15.83
2022-11-22T01:23:53.292Z,13.73
2022-11-22T01:26:25.129Z,14.37
2022-11-22T01:28:56.183Z,14.53
2022-11-22T01:31:28.057Z,16.57
2022-11-22T01:34:03.515Z,15.10
2022-11-22T01:36:36.067Z,15.67
2022-11-22T01:39:06.694Z,15.03
2022-11-22T01:41:37.406Z,15.47
2022-11-22T01:44:28.177Z,15.27
2022-11-22T01:47:17.131Z,14.93
2022-11-22T01:50:02.530Z,14.87
2022-11-22T01:52:36.120Z,15.83
2022-11-22T01:55:10.467Z,14.93
2022-11-22T01:57:45.437Z,15.00
2022-11-22T02:00:18.106Z,16.00
2022-11-22T02:02:52.064Z,14.87
2022-11-22T02:05:26.885Z,15.43
2022-11-22T02:08:21.726Z,16.67
2022-11-22T02:10:56.224Z,15.83
2022-11-22T02:13:27.600Z,15.27
2022-11-22T02:15:59.049Z,16.30
2022-11-22T02:18:31.133Z,15.90
2022-11-22T02:21:03.051Z,16.47
2022-11-22T02:23:48.724Z,16.10
2022-11-22T02:26:19.262Z,15.77
2022-11-22T02:29:03.640Z,16.33
2022-11-22T02:31:40.479Z,14.73
2022-11-22T02:34:15.459Z,16.60
2022-11-22T02:36:57.871Z,16.07
2022-11-22T02:39:33.338Z,15.03
2022-11-22T02:42:05.834Z,15.50
2022-11-22T02:44:39.399Z,15.87
2022-11-22T02:47:10.358Z,16.10
2022-11-22T02:49:43.716Z,13.93
2022-11-22T02:52:18.978Z,12.77
2022-11-22T02:54:49.999Z,16.63
2022-11-22T02:57:20.539Z,15.67
2022-11-22T02:59:52.828Z,14.87
2022-11-22T03:02:24.307Z,15.77
2022-11-22T03:04:54.759Z,14.93
2022-11-22T03:07:25.613Z,15.90
2022-11-22T03:09:59.141Z,16.40
2022-11-22T03:12:32.109Z,15.73
2022-11-22T03:15:04.401Z,16.93
2022-11-22T03:17:38.339Z,16.70
2022-11-22T03:20:09.792Z,16.43
2022-11-22T03:22:40.364Z,16.83
2022-11-22T03:25:11.230Z,18.10
2022-11-22T03:27:41.956Z,17.30
2022-11-22T03:30:13.244Z,16.17
2022-11-22T03:32:43.687Z,15.17
2022-11-22T03:35:15.800Z,16.27
2022-11-22T03:37:46.592Z,16.83
2022-11-22T03:40:21.275Z,17.20
2022-11-22T03:42:53.664Z,17.10
2022-11-22T03:45:24.526Z,16.67
2022-11-22T03:47:58.847Z,14.87
2022-11-22T03:50:29.510Z,16.67
2022-11-22T03:53:05.229Z,16.77
2022-11-22T03:55:36.040Z,14.80
2022-11-22T03:58:06.707Z,16.40
2022-11-22T04:00:38.780Z,17.13
2022-11-22T04:03:10.362Z,15.73
2022-11-22T04:05:42.563Z,17.03
2022-11-22T04:08:13.238Z,16.27
2022-11-22T04:10:44.439Z,14.97
2022-11-22T04:13:15.230Z,16.13
2022-11-22T04:15:45.915Z,16.03
2022-11-22T04:18:16.720Z,16.87
2022-11-22T04:21:05.409Z,16.93
2022-11-22T04:23:40.536Z,16.57
2022-11-22T04:26:09.812Z,16.77
2022-11-22T04:29:08.173Z,14.70
2022-11-22T04:31:30.488Z,17.83
2022-11-22T04:34:01.009Z,17.80
2022-11-22T04:36:32.364Z,17.57
2022-11-22T04:39:03.191Z,17.20
2022-11-22T04:41:35.374Z,16.80
2022-11-22T04:44:25.264Z,17.50
2022-11-22T04:46:56.600Z,17.80
2022-11-22T04:49:32.269Z,17.07
2022-11-22T04:52:20.881Z,17.77
2022-11-22T04:54:55.805Z,17.00
2022-11-22T04:57:25.996Z,16.97
2022-11-22T04:59:58.156Z,14.90
2022-11-22T05:02:28.708Z,18.00
2022-11-22T05:05:01.270Z,14.40
2022-11-22T05:07:32.027Z,17.13
2022-11-22T05:10:03.773Z,18.17
2022-11-22T05:12:36.694Z,16.93
2022-11-22T05:15:11.459Z,17.23
2022-11-22T05:17:42.075Z,17.90
2022-11-22T05:20:12.913Z,19.03
2022-11-22T05:23:01.605Z,18.73
2022-11-22T05:25:32.099Z,18.47
2022-11-22T05:28:02.766Z,18.03
2022-11-22T05:30:34.380Z,19.93
2022-11-22T05:33:06.198Z,19.80
2022-11-22T05:35:36.652Z,16.10
2022-11-22T05:38:09.195Z,18.87
2022-11-22T05:40:42.484Z,18.97
2022-11-22T05:43:15.785Z,17.70
2022-11-22T05:45:50.550Z,18.47
2022-11-22T05:48:26.501Z,19.37
2022-11-22T05:50:56.978Z,18.83
2022-11-22T05:53:27.488Z,20.03
2022-11-22T05:55:59.545Z,19.50
2022-11-22T05:58:32.451Z,18.47
2022-11-22T06:01:05.977Z,17.97
2022-11-22T06:03:39.258Z,18.40
2022-11-22T06:06:12.186Z,18.93
2022-11-22T06:08:48.008Z,18.23
2022-11-22T06:11:24.187Z,18.80
2022-11-22T06:14:00.532Z,18.73
2022-11-22T06:16:31.579Z,18.10
2022-11-22T06:19:02.224Z,18.57
2022-11-22T06:21:36.203Z,19.13
2022-11-22T06:24:10.605Z,17.87
2022-11-22T06:26:42.237Z,17.47
2022-11-22T06:29:13.180Z,18.23
2022-11-22T06:31:46.861Z,18.60
2022-11-22T06:34:19.566Z,19.10
2022-11-22T06:36:50.835Z,16.80
2022-11-22T06:39:23.362Z,17.27
2022-11-22T06:41:54.293Z,17.47
2022-11-22T06:44:25.781Z,18.57
2022-11-22T06:47:02.388Z,16.43
2022-11-22T06:49:33.074Z,18.00
2022-11-22T06:52:05.696Z,18.13
2022-11-22T06:54:37.578Z,16.67
2022-11-22T06:57:09.388Z,16.20
2022-11-22T06:59:42.756Z,17.57
2022-11-22T07:02:15.116Z,19.10
2022-11-22T07:05:09.500Z,18.27
2022-11-22T07:07:18.844Z,17.47
2022-11-22T07:09:56.157Z,15.53
2022-11-22T07:12:24.834Z,18.67
2022-11-22T07:14:58.246Z,16.67
2022-11-22T07:17:28.813Z,17.53
2022-11-22T07:20:01.403Z,16.17
2022-11-22T07:22:31.983Z,17.20
2022-11-22T07:25:02.530Z,17.33
2022-11-22T07:27:34.104Z,17.17
2022-11-22T07:30:07.645Z,17.53
2022-11-22T07:32:38.450Z,17.17
2022-11-22T07:35:09.717Z,17.87
2022-11-22T07:37:40.348Z,15.27
2022-11-22T07:40:12.704Z,14.13
2022-11-22T07:42:45.336Z,16.70
2022-11-22T07:45:19.704Z,17.70
2022-11-22T07:47:54.351Z,14.67
2022-11-22T07:50:26.415Z,17.20
2022-11-22T07:53:02.812Z,16.33
2022-11-22T07:55:33.254Z,16.60
2022-11-22T07:58:04.222Z,17.77
2022-11-22T08:00:37.392Z,17.23
2022-11-22T08:03:15.622Z,15.67
2022-11-22T08:05:46.420Z,18.17
2022-11-22T08:08:16.883Z,16.63
2022-11-22T08:10:50.045Z,18.30
2022-11-22T08:13:21.965Z,15.10
2022-11-22T08:15:54.891Z,17.97
2022-11-22T08:18:26.376Z,18.27
2022-11-22T08:21:08.985Z,18.00
2022-11-22T08:23:40.647Z,17.93
2022-11-22T08:26:14.145Z,19.43
2022-11-22T08:28:45.216Z,17.60
2022-11-22T08:31:19.631Z,17.43
2022-11-22T08:33:55.897Z,17.23
2022-11-22T08:36:29.267Z,17.80
2022-11-22T08:39:00.049Z,18.93
2022-11-22T08:41:30.527Z,18.83
2022-11-22T08:44:02.576Z,15.83
2022-11-22T08:46:40.526Z,18.20
2022-11-22T08:49:14.026Z,19.30
2022-11-22T08:51:46.710Z,17.50
2022-11-22T08:54:17.386Z,17.75
2022-11-22T08:56:50.938Z,16.30
2022-11-22T08:59:21.602Z,18.10
2022-11-22T09:01:53.305Z,18.87
2022-11-22T09:04:27.546Z,19.17
2022-11-22T09:09:37.987Z,17.30
2022-11-22T09:12:08.219Z,19.00
2022-11-22T09:14:38.782Z,20.33
2022-11-22T09:17:14.606Z,20.27
2022-11-22T09:19:42.877Z,20.10
2022-11-22T09:22:15.121Z,18.33
2022-11-22T09:24:46.902Z,18.47
2022-11-22T09:27:17.301Z,15.67
2022-11-22T09:29:48.107Z,17.20
2022-11-22T09:32:18.814Z,17.40
2022-11-22T09:34:53.764Z,18.10
2022-11-22T09:37:25.293Z,20.87
2022-11-22T09:39:57.629Z,20.93
2022-11-22T09:42:38.949Z,20.30
2022-11-22T09:45:31.179Z,20.33
2022-11-22T09:48:24.215Z,18.30
2022-11-22T09:51:13.224Z,20.27
2022-11-22T09:53:57.805Z,19.90
2022-11-22T09:56:30.591Z,17.70
2022-11-22T09:59:07.268Z,19.70
2022-11-22T10:01:45.483Z,19.53
2022-11-22T10:04:22.132Z,15.07
2022-11-22T10:06:58.996Z,19.83
2022-11-22T10:09:50.528Z,19.07
2022-11-22T10:12:53.514Z,18.73
2022-11-22T10:15:31.834Z,19.17
2022-11-22T10:18:24.371Z,20.20
2022-11-22T10:20:57.397Z,20.40
2022-11-22T10:23:29.021Z,20.97
2022-11-22T10:26:04.070Z,20.33
2022-11-22T10:28:43.787Z,20.32
2022-11-22T10:31:26.879Z,22.37
2022-11-22T10:34:26.406Z,21.40
2022-11-22T10:37:40.949Z,19.17
2022-11-22T10:40:24.888Z,22.57
2022-11-22T10:43:07.377Z,20.87
2022-11-22T10:45:44.799Z,17.60
2022-11-22T10:48:31.364Z,20.10
2022-11-22T10:51:09.410Z,20.57
2022-11-22T10:53:43.827Z,20.67
2022-11-22T10:56:24.975Z,21.77
2022-11-22T10:59:24.403Z,20.73
2022-11-22T11:02:16.352Z,20.80
2022-11-22T11:04:48.750Z,20.67
2022-11-22T11:07:22.259Z,20.53
2022-11-22T11:10:11.547Z,20.55
2022-11-22T11:12:52.716Z,20.70
2022-11-22T11:15:52.625Z,19.82
2022-11-22T11:18:37.803Z,21.30
2022-11-22T11:21:13.406Z,20.87
2022-11-22T11:23:44.758Z,21.43
2022-11-22T11:26:25.461Z,22.45
2022-11-22T11:29:20.059Z,20.67
2022-11-22T11:31:52.776Z,20.17
2022-11-22T11:34:28.880Z,19.83
2022-11-22T11:37:03.493Z,18.43
2022-11-22T11:39:39.402Z,18.33
2022-11-22T11:42:32.540Z,20.33
2022-11-22T11:45:24.565Z,17.90
2022-11-22T11:47:57.749Z,19.30
2022-11-22T11:50:33.689Z,19.45
2022-11-22T11:53:06.875Z,18.30
2022-11-22T11:55:38.890Z,21.20
2022-11-22T11:58:23.385Z,19.33
2022-11-22T12:00:54.370Z,21.53
2022-11-22T12:03:28.109Z,21.07
2022-11-22T12:06:17.760Z,20.93
2022-11-22T12:08:54.909Z,20.93
2022-11-22T12:11:38.788Z,19.20
2022-11-22T12:14:22.473Z,18.05
2022-11-22T12:16:51.915Z,20.70
2022-11-22T12:19:42.634Z,20.83
2022-11-22T12:22:42.681Z,20.30
2022-11-22T12:25:30.417Z,21.63
2022-11-22T12:27:29.427Z,19.27
2022-11-22T12:30:00.607Z,20.87
2022-11-22T12:32:40.165Z,20.40
2022-11-22T12:35:16.394Z,20.03
2022-11-22T12:38:05.147Z,19.80
2022-11-22T12:40:38.634Z,19.23
2022-11-22T12:43:34.949Z,20.90
2022-11-22T12:46:12.359Z,20.67
2022-11-22T12:48:48.761Z,19.20
2022-11-22T12:51:30.818Z,20.03
2022-11-22T12:54:04.311Z,16.83
2022-11-22T12:56:37.919Z,19.90
2022-11-22T12:59:15.831Z,19.10
2022-11-22T13:02:08.244Z,20.97
2022-11-22T13:05:09.189Z,20.83
2022-11-22T13:08:16.766Z,19.37
2022-11-22T13:10:56.857Z,20.13
2022-11-22T13:13:36.809Z,19.13
2022-11-22T13:16:12.362Z,18.40
2022-11-22T13:18:54.966Z,20.67
2022-11-22T13:21:37.790Z,19.97
2022-11-22T13:24:22.381Z,20.57
2022-11-22T13:27:14.036Z,16.97
2022-11-22T13:29:46.180Z,20.93
2022-11-22T13:32:24.340Z,20.07
2022-11-22T13:35:05.800Z,21.50
2022-11-22T13:37:45.445Z,18.17
2022-11-22T13:40:29.319Z,21.20
2022-11-22T13:43:22.329Z,21.50
2022-11-22T13:45:55.588Z,20.10
2022-11-22T13:48:47.521Z,18.87
2022-11-22T13:51:22.068Z,19.37
2022-11-22T13:53:57.689Z,20.83
2022-11-22T13:56:33.712Z,20.60
2022-11-22T13:59:16.213Z,22.30
2022-11-22T14:01:49.741Z,21.17
2022-11-22T14:04:32.890Z,20.87
2022-11-22T14:07:14.066Z,19.03
2022-11-22T14:09:53.619Z,20.43
2022-11-22T14:12:50.885Z,20.00
2022-11-22T14:15:44.547Z,19.73
2022-11-22T14:18:26.990Z,21.80
2022-11-22T14:21:14.768Z,21.47
2022-11-22T14:24:00.125Z,21.87
2022-11-22T14:26:36.206Z,20.77
2022-11-22T14:29:18.860Z,20.83
2022-11-22T14:32:07.000Z,21.37
2022-11-22T14:34:40.973Z,21.20
2022-11-22T14:37:17.477Z,21.87
2022-11-22T14:39:53.363Z,21.37
2022-11-22T14:42:46.363Z,21.80
2022-11-22T14:45:46.674Z,21.53
2022-11-22T14:48:22.371Z,20.43
2022-11-22T14:51:09.236Z,21.67
2022-11-22T14:53:49.920Z,21.80
2022-11-22T14:56:26.328Z,21.73
2022-11-22T14:59:29.692Z,17.93
2022-11-22T15:02:36.746Z,18.53
2022-11-22T15:09:10.195Z,20.33
2022-11-22T15:09:14.434Z,20.80
2022-11-22T15:11:08.578Z,20.70
2022-11-22T15:14:10.232Z,21.60
2022-11-22T15:59:32.328Z,21.30
2022-11-22T16:02:04.557Z,22.47
2022-11-22T16:04:39.257Z,21.67
2022-11-22T16:07:10.162Z,21.80
2022-11-22T16:09:42.400Z,22.37
2022-11-22T16:12:39.003Z,21.40
2022-11-22T16:15:40.156Z,19.53
2022-11-22T16:18:27.945Z,20.33
2022-11-22T16:21:10.469Z,20.90
2022-11-22T16:23:45.391Z,22.40
2022-11-22T16:26:24.890Z,21.87
2022-11-22T16:29:00.093Z,22.73
2022-11-22T16:31:32.870Z,21.33
2022-11-22T16:34:03.697Z,19.00
2022-11-22T16:36:35.596Z,21.87
2022-11-22T16:39:07.412Z,20.00
2022-11-22T16:41:38.289Z,22.97
2022-11-22T16:44:15.079Z,23.10
2022-11-22T16:46:47.293Z,21.23
2022-11-22T16:49:22.030Z,23.53
2022-11-22T16:51:54.094Z,21.70
2022-11-22T16:54:26.241Z,21.40
2022-11-22T16:56:57.010Z,22.60
2022-11-22T16:59:30.626Z,21.60
2022-11-22T17:02:04.392Z,22.07
2022-11-22T17:04:41.377Z,20.03
2022-11-22T17:07:14.079Z,21.90
2022-11-22T17:09:47.517Z,21.87
2022-11-22T17:12:26.770Z,22.23
2022-11-22T17:14:58.584Z,23.13
2022-11-22T17:17:29.355Z,20.50
2022-11-22T17:20:01.654Z,23.00
2022-11-22T17:22:33.606Z,22.70
2022-11-22T17:25:04.534Z,21.30
2022-11-22T17:27:43.373Z,21.37
2022-11-22T17:30:15.325Z,22.73
2022-11-22T17:32:49.338Z,23.20
2022-11-22T17:35:23.116Z,22.63
2022-11-22T17:37:57.800Z,22.67
2022-11-22T17:40:28.650Z,23.30
2022-11-22T17:43:00.697Z,23.83
2022-11-22T17:45:32.103Z,25.77
2022-11-22T17:48:06.763Z,23.87
2022-11-22T17:50:42.185Z,23.93
2022-11-22T17:53:14.620Z,23.90
2022-11-22T17:56:09.456Z,25.57
2022-11-22T17:58:18.580Z,24.03
2022-11-22T18:00:51.956Z,23.37
2022-11-22T18:03:24.175Z,23.77
2022-11-22T18:05:57.283Z,24.20
2022-11-22T18:08:29.172Z,25.07
2022-11-22T18:11:02.136Z,23.70
2022-11-22T18:13:37.485Z,23.30
2022-11-22T18:16:14.290Z,38.20
2022-11-22T18:19:01.063Z,22.40
2022-11-22T18:21:19.401Z,23.73
2022-11-22T18:23:52.499Z,22.93
2022-11-22T18:26:38.751Z,23.70
2022-11-22T18:29:24.590Z,24.27
2022-11-22T18:31:32.854Z,28.05
2022-11-22T18:34:04.012Z,26.00
2022-11-22T18:36:54.669Z,25.17
2022-11-22T18:39:11.010Z,24.57
2022-11-22T18:41:44.051Z,22.50
2022-11-22T18:44:17.189Z,24.03
2022-11-22T18:46:48.132Z,23.60
2022-11-22T18:49:19.835Z,22.87
2022-11-22T18:51:50.687Z,23.37
2022-11-22T18:54:24.218Z,22.10
2022-11-22T18:56:58.684Z,23.13
2022-11-22T18:59:32.244Z,21.70
2022-11-22T19:02:03.144Z,22.97
2022-11-22T19:04:36.149Z,22.67
2022-11-22T19:07:08.320Z,24.50
2022-11-22T19:09:38.852Z,23.20
2022-11-22T19:12:09.289Z,21.93
2022-11-22T19:14:43.563Z,22.20
2022-11-22T19:17:18.617Z,20.13
2022-11-22T19:19:48.033Z,21.63
2022-11-22T19:22:19.114Z,23.37
2022-11-22T19:24:49.551Z,23.23
2022-11-22T19:27:20.652Z,22.33
2022-11-22T19:29:52.268Z,22.33
2022-11-22T19:32:25.086Z,25.50
2022-11-22T19:34:57.297Z,20.80
2022-11-22T19:37:27.956Z,23.43
2022-11-22T19:39:58.339Z,23.20
2022-11-22T19:42:30.525Z,25.03
2022-11-22T19:45:01.488Z,23.30
2022-11-22T19:47:32.160Z,23.37
2022-11-22T19:50:05.397Z,23.13
2022-11-22T19:52:35.840Z,23.57
2022-11-22T19:55:08.015Z,23.60
2022-11-22T19:57:38.993Z,23.37
2022-11-22T20:00:12.760Z,23.17
2022-11-22T20:02:43.306Z,23.77
2022-11-22T20:05:16.545Z,23.83
2022-11-22T20:07:47.026Z,23.07
2022-11-22T20:10:17.675Z,23.33
2022-11-22T20:12:50.484Z,23.83
2022-11-22T20:15:21.815Z,23.73
2022-11-22T20:17:53.244Z,24.67
2022-11-22T20:20:23.680Z,24.77
2022-11-22T20:22:54.589Z,24.00
2022-11-22T20:25:25.155Z,22.60
2022-11-22T20:27:57.214Z,22.00
2022-11-22T20:30:27.835Z,22.23
2022-11-22T20:32:59.005Z,23.33
2022-11-22T20:35:29.647Z,22.53
2022-11-22T20:38:01.769Z,23.57
2022-11-22T20:40:32.360Z,23.07
2022-11-22T20:43:02.974Z,23.57
2022-11-22T20:45:34.938Z,22.40
2022-11-22T20:48:07.253Z,23.07
2022-11-22T20:50:40.957Z,23.30
2022-11-22T20:53:11.968Z,22.63
2022-11-22T20:55:44.960Z,22.63
2022-11-22T20:58:18.901Z,23.47
2022-11-22T21:00:53.149Z,23.37
2022-11-22T21:03:24.764Z,22.90
2022-11-22T21:05:57.027Z,23.37
2022-11-22T21:08:28.609Z,22.53
2022-11-22T21:11:13.804Z,23.90
2022-11-22T21:13:47.580Z,23.50
2022-11-22T21:16:25.759Z,21.27
2022-11-22T21:19:01.968Z,19.37
2022-11-22T21:21:38.275Z,23.50
2022-11-22T21:24:11.185Z,24.10
2022-11-22T21:26:42.720Z,23.63
2022-11-22T21:29:16.671Z,23.83
2022-11-22T21:31:49.714Z,24.03
2022-11-22T21:34:20.187Z,23.47
2022-11-22T21:36:51.825Z,24.57
2022-11-22T21:39:23.525Z,23.80
2022-11-22T21:41:55.138Z,23.60
2022-11-22T21:44:25.706Z,24.77
2022-11-22T21:46:57.541Z,24.73
2022-11-22T21:49:27.976Z,23.73
2022-11-22T21:52:03.160Z,25.17
2022-11-22T21:54:34.203Z,24.57
2022-11-22T21:57:04.935Z,22.90
2022-11-22T21:59:35.796Z,24.20
2022-11-22T22:02:06.608Z,25.27
2022-11-22T22:04:38.889Z,25.20
2022-11-22T22:07:29.635Z,24.77
2022-11-22T22:09:52.751Z,24.87
2022-11-22T22:12:23.337Z,25.87
2022-11-22T22:14:54.276Z,24.63
2022-11-22T22:17:24.873Z,24.53
2022-11-22T22:19:55.346Z,24.97
2022-11-22T22:22:25.882Z,25.47
2022-11-22T22:24:56.528Z,24.30
2022-11-22T22:27:27.537Z,27.47
2022-11-22T22:29:59.551Z,26.13
2022-11-22T22:32:33.175Z,23.70
2022-11-22T22:35:07.338Z,25.50
2022-11-22T22:37:40.997Z,25.47
2022-11-22T22:40:12.178Z,26.57
2022-11-22T22:42:42.588Z,24.87
2022-11-22T22:45:16.162Z,24.33
2022-11-22T22:47:49.659Z,24.37
2022-11-22T22:50:21.751Z,23.87
2022-11-22T22:52:53.753Z,25.27
2022-11-22T22:55:24.919Z,26.47
2022-11-22T22:57:58.107Z,25.37
2022-11-22T23:00:30.041Z,25.43
2022-11-22T23:03:00.587Z,26.07
2022-11-22T23:05:31.166Z,25.33
2022-11-22T23:08:01.698Z,25.47
2022-11-22T23:10:35.233Z,26.30
2022-11-22T23:13:07.372Z,27.57
2022-11-22T23:15:57.316Z,24.57
2022-11-22T23:18:16.168Z,25.60
2022-11-22T23:20:48.240Z,26.10
2022-11-22T23:23:18.701Z,26.67
2022-11-22T23:25:49.496Z,24.43
2022-11-22T23:28:20.349Z,25.77
2022-11-22T23:30:52.444Z,25.97
2022-11-22T23:33:25.651Z,25.40
2022-11-22T23:35:56.472Z,25.50
2022-11-22T23:38:26.988Z,25.73
2022-11-22T23:40:57.779Z,25.47
2022-11-22T23:43:29.868Z,26.97
2022-11-22T23:46:00.382Z,26.93
2022-11-22T23:48:31.627Z,25.73
2022-11-22T23:51:05.562Z,24.87
2022-11-22T23:53:37.077Z,26.30
2022-11-22T23:56:15.904Z,26.77
2022-11-22T23:58:48.119Z,26.20
